createdAt,value
2022-11-29T00:02:47.308Z,96970.69
2022-11-29T00:05:48.934Z,96964.59
2022-11-29T00:08:50.787Z,96961.31
2022-11-29T00:12:11.171Z,96964.94
2022-11-29T00:15:12.890Z,96969.53
2022-11-29T00:18:14.577Z,96963.16
2022-11-29T00:21:16.222Z,96960.16
2022-11-29T00:24:18.612Z,96962.78
2022-11-29T00:27:20.213Z,96961.97
2022-11-29T00:30:21.928Z,96950.16
2022-11-29T00:33:23.547Z,96958.19
2022-11-29T00:36:25.874Z,96953.75
2022-11-29T00:39:27.488Z,96949.78
2022-11-29T00:42:29.114Z,96949.78
2022-11-29T00:45:30.626Z,96947.81
2022-11-29T00:48:32.513Z,96958.19
2022-11-29T00:51:34.213Z,96954.75
2022-11-29T00:54:35.842Z,96951.78
2022-11-29T00:57:37.454Z,96955.38
2022-11-29T01:00:39.076Z,96959.84
2022-11-29T01:03:40.984Z,96957.38
2022-11-29T01:06:42.587Z,96956.22
2022-11-29T01:09:44.204Z,96955.41
2022-11-29T01:12:45.900Z,96954.91
2022-11-29T01:15:55.728Z,96956.56
2022-11-29T01:18:57.351Z,96960.00
2022-11-29T01:21:59.061Z,96954.72
2022-11-29T01:25:00.652Z,96955.91
2022-11-29T01:28:02.263Z,96957.69
2022-11-29T01:31:12.360Z,96960.31
2022-11-29T01:34:13.988Z,96960.31
2022-11-29T01:37:16.028Z,96966.75
2022-11-29T01:40:17.631Z,96969.22
2022-11-29T01:43:19.161Z,96957.41
2022-11-29T01:46:20.805Z,96968.09
2022-11-29T01:49:27.184Z,96964.66
2022-11-29T01:52:32.313Z,96965.94
2022-11-29T01:55:39.661Z,96961.50
2022-11-29T01:58:44.215Z,96957.91
2022-11-29T02:01:45.899Z,96957.69
2022-11-29T02:04:48.526Z,96953.94
2022-11-29T02:07:53.116Z,96947.88
2022-11-29T02:11:15.701Z,96950.31
2022-11-29T02:14:26.577Z,96950.31
2022-11-29T02:18:07.982Z,96947.88
2022-11-29T02:21:29.682Z,96941.09
2022-11-29T02:25:17.431Z,96938.63
2022-11-29T02:28:27.735Z,96931.75
2022-11-29T02:31:38.625Z,96935.03
2022-11-29T02:35:39.497Z,96937.50
2022-11-29T02:39:11.895Z,96928.59
2022-11-29T02:42:54.064Z,96946.22
2022-11-29T02:46:43.704Z,96943.72
2022-11-29T02:49:45.315Z,96941.91
2022-11-29T02:52:59.913Z,96941.44
2022-11-29T02:56:10.758Z,96941.78
2022-11-29T02:59:32.056Z,96947.19
2022-11-29T03:02:51.864Z,96948.53
2022-11-29T03:06:22.920Z,96940.47
2022-11-29T03:09:46.647Z,96945.91
2022-11-29T03:12:52.004Z,96940.63
2022-11-29T03:16:47.910Z,96953.94
2022-11-29T03:19:49.463Z,96962.00
2022-11-29T03:27:09.879Z,96959.38
2022-11-29T03:30:16.966Z,96961.31
2022-11-29T03:33:38.080Z,96966.94
2022-11-29T03:36:54.829Z,96974.81
2022-11-29T03:40:11.916Z,96977.47
2022-11-29T03:43:42.629Z,96976.63
2022-11-29T03:46:54.893Z,96985.50
2022-11-29T03:50:03.345Z,96976.78
2022-11-29T03:53:33.860Z,96974.97
2022-11-29T03:56:39.072Z,96978.41
2022-11-29T04:00:05.637Z,96981.38
2022-11-29T04:03:43.709Z,96989.59
2022-11-29T04:07:03.916Z,96980.38
2022-11-29T04:10:20.145Z,96990.91
2022-11-29T04:13:39.959Z,96982.00
2022-11-29T04:16:50.872Z,96987.44
2022-11-29T04:20:10.484Z,96982.31
2022-11-29T04:23:31.602Z,96978.06
2022-11-29T04:26:56.727Z,96989.56
2022-11-29T04:30:06.016Z,96988.09
2022-11-29T04:33:28.850Z,96984.94
2022-11-29T04:37:01.247Z,96993.81
2022-11-29T04:40:11.875Z,96992.50
2022-11-29T04:43:38.482Z,96992.16
2022-11-29T04:47:13.882Z,97001.19
2022-11-29T04:50:42.806Z,97003.81
2022-11-29T04:54:02.019Z,97001.34
2022-11-29T04:57:17.650Z,97003.97
2022-11-29T05:00:22.733Z,97004.47
2022-11-29T05:03:41.942Z,97005.41
2022-11-29T05:07:01.483Z,97016.06
2022-11-29T05:10:13.973Z,97014.25
2022-11-29T05:13:28.907Z,97018.47
2022-11-29T05:16:57.014Z,97022.06
2022-11-29T05:20:11.055Z,97025.59
2022-11-29T05:23:49.932Z,97024.56
2022-11-29T05:27:11.743Z,97026.31
2022-11-29T05:35:32.419Z,97031.88
2022-11-29T05:39:01.596Z,97033.47
2022-11-29T05:42:33.496Z,97033.28
2022-11-29T05:45:43.554Z,97034.91
2022-11-29T05:48:53.942Z,97040.81
2022-11-29T05:52:24.555Z,97046.78
2022-11-29T05:55:41.343Z,97043.16
2022-11-29T05:59:01.262Z,97045.13
2022-11-29T06:02:19.174Z,97056.22
2022-11-29T06:05:20.715Z,97058.78
2022-11-29T06:08:32.395Z,97064.94
2022-11-29T06:11:42.116Z,97059.75
2022-11-29T06:14:58.251Z,97051.47
2022-11-29T06:18:25.075Z,97065.00
2022-11-29T06:21:33.381Z,97057.56
2022-11-29T06:24:51.586Z,97056.38
2022-11-29T06:28:05.696Z,97068.13
2022-11-29T06:31:43.512Z,97070.53
2022-11-29T06:35:07.630Z,97055.84
2022-11-29T06:38:28.370Z,97069.22
2022-11-29T06:41:30.194Z,97060.97
2022-11-29T06:44:31.964Z,97066.34
2022-11-29T06:47:50.114Z,97071.72
2022-11-29T06:51:12.096Z,97067.91
2022-11-29T06:54:30.334Z,97073.13
2022-11-29T06:57:50.718Z,97080.72
2022-11-29T07:01:06.949Z,97091.06
2022-11-29T07:04:46.296Z,97093.09
2022-11-29T07:07:48.788Z,97090.25
2022-11-29T07:10:54.031Z,97098.09
2022-11-29T07:13:56.243Z,97104.53
2022-11-29T07:17:19.924Z,97107.38
2022-11-29T07:20:47.753Z,97111.78
2022-11-29T07:24:19.329Z,97112.78
2022-11-29T07:27:34.942Z,97108.19
2022-11-29T07:30:54.703Z,97112.38
2022-11-29T07:34:05.463Z,97114.78
2022-11-29T07:37:25.086Z,97119.94
2022-11-29T07:40:35.949Z,97117.69
2022-11-29T07:44:04.127Z,97116.78
2022-11-29T07:47:05.763Z,97118.34
2022-11-29T07:50:08.471Z,97123.81
2022-11-29T07:53:17.543Z,97127.47
2022-11-29T07:56:19.179Z,97122.41
2022-11-29T07:59:20.734Z,97123.22
2022-11-29T08:02:29.567Z,97134.47
2022-11-29T08:05:31.325Z,97129.41
2022-11-29T08:08:32.854Z,97134.22
2022-11-29T08:11:34.442Z,97137.88
2022-11-29T08:14:36.031Z,97132.28
2022-11-29T08:17:38.750Z,97135.09
2022-11-29T08:20:41.765Z,97131.97
2022-11-29T08:23:44.205Z,97138.38
2022-11-29T08:26:45.777Z,97140.25
2022-11-29T08:29:47.432Z,97138.56
2022-11-29T08:32:51.756Z,97144.06
2022-11-29T08:35:53.514Z,97147.94
2022-11-29T08:39:02.260Z,97143.06
2022-11-29T08:42:07.962Z,97144.13
2022-11-29T08:45:10.151Z,97150.41
2022-11-29T08:48:13.771Z,97157.91
2022-11-29T08:51:15.579Z,97151.81
2022-11-29T08:54:17.091Z,97161.22
2022-11-29T08:57:46.706Z,97159.41
2022-11-29T09:00:42.727Z,97152.84
2022-11-29T09:03:59.843Z,97162.25
2022-11-29T09:07:01.359Z,97159.78
2022-11-29T09:10:05.447Z,97165.22
2022-11-29T09:13:07.366Z,97172.97
2022-11-29T09:16:11.256Z,97159.28
2022-11-29T09:19:14.225Z,97157.13
2022-11-29T09:22:16.004Z,97153.16
2022-11-29T09:25:17.516Z,97162.53
2022-11-29T09:28:19.052Z,97163.97
2022-11-29T09:31:21.295Z,97168.72
2022-11-29T09:34:23.054Z,97174.81
2022-11-29T09:37:24.610Z,97171.53
2022-11-29T09:40:38.582Z,97175.78
2022-11-29T09:44:04.793Z,97181.72
2022-11-29T09:47:35.507Z,97180.09
2022-11-29T09:50:43.055Z,97190.31
2022-11-29T09:58:29.817Z,97188.38
2022-11-29T10:01:36.757Z,97194.34
2022-11-29T10:04:44.217Z,97193.19
2022-11-29T10:07:51.332Z,97184.47
2022-11-29T10:11:08.517Z,97194.50
2022-11-29T10:14:18.031Z,97187.75
2022-11-29T10:17:31.281Z,97187.13
2022-11-29T10:20:41.370Z,97188.25
2022-11-29T10:23:59.363Z,97195.19
2022-11-29T10:27:01.446Z,97185.94
2022-11-29T10:30:03.197Z,97184.28
2022-11-29T10:33:15.950Z,97172.91
2022-11-29T10:36:33.120Z,97182.97
2022-11-29T10:39:58.359Z,97177.69
2022-11-29T10:43:01.255Z,97179.31
2022-11-29T10:46:05.362Z,97179.84
2022-11-29T10:49:10.405Z,97183.97
2022-11-29T10:52:19.581Z,97186.78
2022-11-29T10:55:22.806Z,97191.19
2022-11-29T10:58:28.554Z,97191.72
2022-11-29T11:01:33.700Z,97182.16
2022-11-29T11:04:44.526Z,97179.22
2022-11-29T11:07:56.914Z,97179.38
2022-11-29T11:11:01.843Z,97182.00
2022-11-29T11:14:17.243Z,97179.88
2022-11-29T11:17:25.833Z,97181.66
2022-11-29T11:20:32.565Z,97179.03
2022-11-29T11:23:42.711Z,97172.97
2022-11-29T11:26:45.634Z,97176.75
2022-11-29T11:29:47.236Z,97173.28
2022-11-29T11:33:27.850Z,97177.41
2022-11-29T11:36:29.376Z,97176.09
2022-11-29T11:39:32.376Z,97183.16
2022-11-29T11:42:40.409Z,97175.75
2022-11-29T11:45:50.216Z,97177.06
2022-11-29T11:48:52.116Z,97181.50
2022-11-29T11:51:53.735Z,97178.88
2022-11-29T11:54:59.965Z,97189.56
2022-11-29T11:58:15.584Z,97184.16
2022-11-29T12:01:37.386Z,97193.19
2022-11-29T12:04:38.916Z,97189.91
2022-11-29T12:08:07.360Z,97189.09
2022-11-29T12:11:11.725Z,97192.88
2022-11-29T12:14:25.351Z,97193.03
2022-11-29T12:17:50.905Z,97201.28
2022-11-29T12:21:05.352Z,97199.97
2022-11-29T12:24:22.498Z,97202.44
2022-11-29T12:27:24.099Z,97199.94
2022-11-29T12:30:26.095Z,97201.28
2022-11-29T12:33:38.202Z,97196.66
2022-11-29T12:36:42.574Z,97205.06
2022-11-29T12:39:57.928Z,97203.91
2022-11-29T12:43:15.305Z,97208.19
2022-11-29T12:46:29.763Z,97203.56
2022-11-29T12:49:57.345Z,97200.47
2022-11-29T12:53:26.809Z,97207.06
2022-11-29T12:57:07.983Z,97212.78
2022-11-29T13:00:15.315Z,97209.19
2022-11-29T13:04:03.628Z,97210.81
2022-11-29T13:07:11.054Z,97211.97
2022-11-29T13:10:51.395Z,97209.47
2022-11-29T13:14:08.250Z,97214.72
2022-11-29T13:17:45.725Z,97214.22
2022-11-29T13:21:00.822Z,97212.25
2022-11-29T13:24:23.968Z,97211.41
2022-11-29T13:27:28.533Z,97215.34
2022-11-29T13:30:30.445Z,97212.72
2022-11-29T13:33:34.649Z,97212.91
2022-11-29T13:36:54.774Z,97220.81
2022-11-29T13:40:25.379Z,97223.25
2022-11-29T13:43:50.255Z,97215.53
2022-11-29T13:46:57.825Z,97220.81
2022-11-29T13:50:26.721Z,97214.69
2022-11-29T13:53:48.661Z,97216.66
2022-11-29T13:57:02.276Z,97215.34
2022-11-29T14:00:04.096Z,97215.97
2022-11-29T14:03:23.793Z,97229.47
2022-11-29T14:06:34.794Z,97229.22
2022-11-29T14:09:51.536Z,97231.69
2022-11-29T14:12:56.803Z,97232.03
2022-11-29T14:16:02.606Z,97225.59
2022-11-29T14:19:04.503Z,97233.66
2022-11-29T14:22:17.997Z,97231.69
2022-11-29T14:28:45.694Z,97234.59
2022-11-29T14:31:50.420Z,97240.06
2022-11-29T14:35:17.046Z,97233.66
2022-11-29T14:38:35.358Z,97245.84
2022-11-29T14:41:53.491Z,97243.66
2022-11-29T14:45:01.412Z,97239.66
2022-11-29T14:48:03.348Z,97241.63
2022-11-29T14:51:13.222Z,97237.22
2022-11-29T14:54:19.985Z,97238.84
2022-11-29T14:57:49.648Z,97247.75
2022-11-29T15:01:02.699Z,97248.41
2022-11-29T15:04:09.718Z,97250.91
2022-11-29T15:07:18.267Z,97257.31
2022-11-29T15:10:25.571Z,97251.19
2022-11-29T15:13:32.865Z,97248.06
2022-11-29T15:16:45.413Z,97252.06
2022-11-29T15:20:06.296Z,97248.25
2022-11-29T15:23:18.456Z,97251.03
2022-11-29T15:26:26.923Z,97258.25
2022-11-29T15:29:30.929Z,97263.19
2022-11-29T15:32:32.962Z,97261.22
2022-11-29T15:35:36.200Z,97256.44
2022-11-29T15:38:52.880Z,97256.59
2022-11-29T15:42:00.439Z,97261.34
2022-11-29T15:45:01.937Z,97270.69
2022-11-29T15:48:12.575Z,97268.88
2022-11-29T15:51:34.174Z,97267.59
2022-11-29T15:54:42.261Z,97272.06
2022-11-29T15:57:48.698Z,97272.38
2022-11-29T16:00:51.916Z,97272.34
2022-11-29T16:03:57.419Z,97273.81
2022-11-29T16:06:59.147Z,97272.00
2022-11-29T16:10:12.771Z,97274.63
2022-11-29T16:13:32.269Z,97282.06
2022-11-29T16:16:35.596Z,97274.50
2022-11-29T16:19:39.176Z,97279.28
2022-11-29T16:22:40.678Z,97279.97
2022-11-29T16:26:09.815Z,97285.88
2022-11-29T16:29:26.497Z,97278.78
2022-11-29T16:32:37.810Z,97275.94
2022-11-29T16:35:40.501Z,97271.50
2022-11-29T16:38:54.416Z,97294.72
2022-11-29T16:42:29.366Z,97295.50
2022-11-29T16:45:34.132Z,97280.53
2022-11-29T16:48:38.349Z,97288.44
2022-11-29T16:51:48.324Z,97293.56
2022-11-29T16:54:50.951Z,97287.28
2022-11-29T16:57:52.740Z,97304.75
2022-11-29T17:00:54.550Z,97293.78
2022-11-29T17:03:58.394Z,97297.88
2022-11-29T17:07:00.073Z,97300.16
2022-11-29T17:10:02.281Z,97304.75
2022-11-29T17:13:04.541Z,97300.41
2022-11-29T17:16:11.714Z,97302.25
2022-11-29T17:19:14.057Z,97300.63
2022-11-29T17:22:15.744Z,97301.44
2022-11-29T17:25:17.367Z,97299.91
2022-11-29T17:28:18.928Z,97303.00
2022-11-29T17:31:23.093Z,97307.13
2022-11-29T17:34:24.808Z,97310.94
2022-11-29T17:37:28.721Z,97305.22
2022-11-29T17:40:30.254Z,97303.13
2022-11-29T17:43:34.645Z,97305.22
2022-11-29T17:46:37.469Z,97307.19
2022-11-29T17:49:39.097Z,97319.34
2022-11-29T17:52:41.482Z,97317.72
2022-11-29T17:55:43.094Z,97318.00
2022-11-29T17:58:45.151Z,97323.13
2022-11-29T18:01:50.039Z,97321.31
2022-11-29T18:04:51.640Z,97324.75
2022-11-29T18:07:58.993Z,97325.59
2022-11-29T18:11:11.849Z,97327.25
2022-11-29T18:14:15.861Z,97330.38
2022-11-29T18:17:17.390Z,97332.88
2022-11-29T18:20:18.899Z,97332.34
2022-11-29T18:23:20.648Z,97326.28
2022-11-29T18:26:24.454Z,97343.25
2022-11-29T18:29:26.015Z,97337.50
2022-11-29T18:32:27.730Z,97340.84
2022-11-29T18:35:29.240Z,97341.50
2022-11-29T18:38:34.269Z,97333.47
2022-11-29T18:41:37.642Z,97331.28
2022-11-29T18:44:39.300Z,97348.53
2022-11-29T18:47:41.416Z,97338.72
2022-11-29T18:50:43.023Z,97352.03
2022-11-29T18:53:50.328Z,97346.09
2022-11-29T18:56:51.932Z,97346.91
2022-11-29T18:59:53.519Z,97347.72
2022-11-29T19:02:56.180Z,97343.47
2022-11-29T19:05:57.823Z,97338.72
2022-11-29T19:08:59.560Z,97347.88
2022-11-29T19:12:03.836Z,97352.03
2022-11-29T19:15:05.898Z,97355.63
2022-11-29T19:18:07.398Z,97362.53
2022-11-29T19:21:14.488Z,97354.50
2022-11-29T19:24:18.085Z,97353.50
2022-11-29T19:27:32.833Z,97354.00
2022-11-29T19:30:44.117Z,97357.59
2022-11-29T19:33:49.586Z,97354.59
2022-11-29T19:37:06.282Z,97359.19
2022-11-29T19:40:08.608Z,97351.81
2022-11-29T19:43:10.328Z,97353.13
2022-11-29T19:46:21.188Z,97362.53
2022-11-29T19:49:23.994Z,97362.53
2022-11-29T19:52:27.625Z,97365.63
2022-11-29T19:55:29.549Z,97361.50
2022-11-29T19:58:31.349Z,97371.69
2022-11-29T20:01:40.345Z,97368.41
2022-11-29T20:04:45.459Z,97361.13
2022-11-29T20:07:47.199Z,97366.91
2022-11-29T20:10:49.290Z,97372.31
2022-11-29T20:13:59.933Z,97370.84
2022-11-29T20:17:01.571Z,97366.03
2022-11-29T20:20:03.684Z,97373.31
2022-11-29T20:23:05.579Z,97362.63
2022-11-29T20:26:13.500Z,97365.91
2022-11-29T20:29:15.980Z,97366.91
2022-11-29T20:32:18.178Z,97369.69
2022-11-29T20:35:19.836Z,97374.28
2022-11-29T20:38:35.106Z,97369.31
2022-11-29T20:42:18.759Z,97374.00
2022-11-29T20:45:21.038Z,97372.69
2022-11-29T20:48:23.273Z,97373.66
2022-11-29T20:51:54.658Z,97363.78
2022-11-29T20:54:56.244Z,97379.59
2022-11-29T20:57:58.212Z,97378.63
2022-11-29T21:01:00.462Z,97374.13
2022-11-29T21:04:02.202Z,97373.78
2022-11-29T21:07:03.841Z,97382.63
2022-11-29T21:10:06.076Z,97384.44
2022-11-29T21:13:08.469Z,97381.22
2022-11-29T21:16:11.943Z,97377.38
2022-11-29T21:19:20.633Z,97385.44
2022-11-29T21:22:47.415Z,97376.53
2022-11-29T21:26:02.903Z,97380.38
2022-11-29T21:29:18.259Z,97383.53
2022-11-29T21:32:25.459Z,97378.94
2022-11-29T21:35:27.131Z,97373.66
2022-11-29T21:38:29.052Z,97376.78
2022-11-29T21:41:30.627Z,97379.25
2022-11-29T21:44:32.153Z,97387.97
2022-11-29T21:47:33.742Z,97386.91
2022-11-29T21:50:35.330Z,97384.06
2022-11-29T21:53:38.234Z,97387.88
2022-11-29T21:56:42.184Z,97385.09
2022-11-29T21:59:43.771Z,97381.50
2022-11-29T22:02:45.485Z,97383.00
2022-11-29T22:05:47.235Z,97386.47
2022-11-29T22:08:48.814Z,97392.31
2022-11-29T22:11:50.354Z,97391.66
2022-11-29T22:14:55.994Z,97389.69
2022-11-29T22:17:57.648Z,97388.72
2022-11-29T22:21:07.002Z,97388.41
2022-11-29T22:24:15.475Z,97379.03
2022-11-29T22:27:20.644Z,97382.56
2022-11-29T22:30:32.510Z,97389.66
2022-11-29T22:33:43.039Z,97391.94
2022-11-29T22:36:44.734Z,97389.03
2022-11-29T22:39:46.353Z,97382.94
2022-11-29T22:42:47.934Z,97376.84
2022-11-29T22:45:49.491Z,97384.91
2022-11-29T22:48:53.405Z,97381.28
2022-11-29T22:51:54.951Z,97390.16
2022-11-29T22:55:01.298Z,97389.66
2022-11-29T22:58:05.930Z,97389.78
2022-11-29T23:01:14.179Z,97395.88
2022-11-29T23:04:15.878Z,97395.19
2022-11-29T23:07:17.370Z,97387.03
2022-11-29T23:10:21.095Z,97395.56
2022-11-29T23:13:22.903Z,97387.53
2022-11-29T23:16:27.711Z,97390.31
2022-11-29T23:19:29.807Z,97390.22
2022-11-29T23:22:34.207Z,97385.31
2022-11-29T23:25:35.794Z,97391.09
2022-11-29T23:28:37.312Z,97385.97
2022-11-29T23:31:39.119Z,97388.28
2022-11-29T23:34:40.610Z,97390.91
2022-11-29T23:37:42.185Z,97392.44
2022-11-29T23:40:44.330Z,97390.63
2022-11-29T23:43:46.109Z,97392.94
2022-11-29T23:46:47.630Z,97381.09
2022-11-29T23:49:49.299Z,97383.41
2022-11-29T23:52:55.082Z,97389.47
2022-11-29T23:56:05.761Z,97381.56
2022-11-29T23:59:07.414Z,97384.38
